Time;durP1;ratioP1;P1;durP2;ratioP2;P2;SDS_P1;SDS_P2;PMS_P1;PMS_P2;Temp;Humidity;BMP_temperature;BMP_pressure;BME280_temperature;BME280_humidity;BME280_pressure;Samples;Min_cycle;Max_cycle;Signal;HPM_P1;HPM_P2
2023/08/28 00:01:52;;;;;;;3.50;1.27;;;14.90;99.90;;;;;;5078095;28;20447;-75
2023/08/28 00:04:38;;;;;;;7.43;1.97;;;14.70;99.90;;;;;;5080768;28;20428;-75
2023/08/28 00:07:27;;;;;;;3.67;1.40;;;14.50;99.90;;;;;;5085324;28;20438;-75
2023/08/28 00:10:13;;;;;;;4.20;1.23;;;14.40;99.90;;;;;;5080070;28;20963;-75
2023/08/28 00:12:58;;;;;;;4.07;1.63;;;14.30;99.90;;;;;;5089425;28;20953;-75
2023/08/28 00:15:44;;;;;;;3.87;1.40;;;14.20;99.90;;;;;;5086200;28;20448;-76
2023/08/28 00:18:29;;;;;;;7.33;1.63;;;14.30;99.90;;;;;;5087925;28;20590;-76
2023/08/28 00:21:15;;;;;;;6.20;1.60;;;14.40;99.90;;;;;;5087052;28;20461;-76
2023/08/28 00:24:02;;;;;;;2.80;1.37;;;14.40;99.90;;;;;;5086411;28;20419;-75
2023/08/28 00:26:48;;;;;;;2.63;1.50;;;14.40;99.90;;;;;;5084001;28;20434;-75
2023/08/28 00:29:33;;;;;;;2.70;1.53;;;14.60;99.90;;;;;;5085329;28;20804;-76
2023/08/28 00:32:19;;;;;;;2.83;1.40;;;14.80;99.90;;;;;;5088077;28;20473;-76
2023/08/28 00:35:06;;;;;;;2.57;1.60;;;14.90;99.90;;;;;;5081606;28;20918;-75
2023/08/28 00:37:52;;;;;;;3.57;1.50;;;14.80;99.90;;;;;;5086497;28;20449;-76
2023/08/28 00:40:41;;;;;;;7.43;1.77;;;14.70;99.90;;;;;;5080438;28;20440;-76
2023/08/28 00:43:26;;;;;;;2.90;1.53;;;14.50;99.90;;;;;;5087021;28;20487;-75
2023/08/28 00:46:12;;;;;;;4.27;1.63;;;14.40;99.90;;;;;;5084460;28;20412;-76
2023/08/28 00:49:00;;;;;;;4.23;1.50;;;14.50;99.90;;;;;;5086951;28;20434;-75
2023/08/28 00:51:45;;;;;;;4.10;1.60;;;14.60;99.90;;;;;;5083200;28;20586;-75
2023/08/28 00:54:31;;;;;;;3.73;1.57;;;14.80;99.90;;;;;;5083323;28;20456;-76
2023/08/28 00:57:18;;;;;;;4.37;1.77;;;14.80;99.90;;;;;;5085960;28;20966;-75
2023/08/28 01:00:06;;;;;;;3.83;1.70;;;14.70;99.90;;;;;;5082251;28;20494;-75
2023/08/28 01:02:52;;;;;;;3.43;1.37;;;14.50;99.90;;;;;;5081025;28;20464;-75
2023/08/28 01:05:46;;;;;;;4.83;1.60;;;14.30;99.90;;;;;;5088854;28;20456;-75
2023/08/28 01:08:44;;;;;;;2.70;1.40;;;14.20;99.90;;;;;;5085071;28;20492;-75
2023/08/28 01:11:37;;;;;;;2.40;1.47;;;14.00;99.90;;;;;;5090183;28;20448;-76
2023/08/28 01:14:27;;;;;;;2.13;1.73;;;14.10;99.90;;;;;;5078579;28;20413;-75
2023/08/28 01:17:15;;;;;;;5.10;1.47;;;14.10;99.90;;;;;;5086923;28;20428;-76
2023/08/28 01:20:03;;;;;;;3.40;1.40;;;14.10;99.90;;;;;;5083096;28;20436;-75
2023/08/28 01:23:00;;;;;;;6.57;1.70;;;14.20;99.90;;;;;;5083863;28;20779;-75
2023/08/28 01:25:47;;;;;;;2.60;1.50;;;14.30;99.90;;;;;;5085442;28;20809;-75
2023/08/28 01:28:33;;;;;;;2.80;1.80;;;14.40;99.90;;;;;;5082107;28;20774;-75
2023/08/28 01:31:19;;;;;;;8.20;1.50;;;14.60;99.90;;;;;;5082879;28;20799;-76
2023/08/28 01:34:05;;;;;;;4.23;2.10;;;14.40;99.90;;;;;;5086967;28;20436;-75
2023/08/28 01:36:58;;;;;;;3.33;1.53;;;14.30;99.90;;;;;;5083119;28;20834;-75
2023/08/28 01:39:50;;;;;;;2.13;1.40;;;14.00;99.90;;;;;;5081036;28;20462;-76
2023/08/28 01:42:37;;;;;;;7.13;1.90;;;13.90;99.90;;;;;;5081775;28;20420;-75
2023/08/28 01:45:23;;;;;;;7.30;1.60;;;13.90;99.90;;;;;;5080750;28;20424;-75
2023/08/28 01:48:09;;;;;;;2.73;1.57;;;13.90;99.90;;;;;;5081346;28;20442;-74
2023/08/28 01:50:55;;;;;;;11.13;1.83;;;14.00;99.90;;;;;;5085122;28;20582;-76
2023/08/28 01:53:41;;;;;;;2.93;1.40;;;14.00;99.90;;;;;;5084704;28;20507;-75
2023/08/28 01:56:27;;;;;;;6.13;1.83;;;14.10;99.90;;;;;;5079192;28;20539;-76
2023/08/28 01:59:14;;;;;;;2.60;1.50;;;14.20;99.90;;;;;;5077641;28;20786;-75
2023/08/28 02:01:59;;;;;;;7.20;1.60;;;14.40;99.90;;;;;;5085036;28;21056;-75
2023/08/28 02:04:46;;;;;;;3.17;1.40;;;14.40;99.90;;;;;;5075774;28;20443;-75
2023/08/28 02:07:31;;;;;;;3.50;1.70;;;14.30;99.90;;;;;;5081835;28;20470;-75
2023/08/28 02:10:17;;;;;;;4.90;1.63;;;14.10;99.90;;;;;;5081417;28;20420;-75
2023/08/28 02:13:03;;;;;;;5.03;1.77;;;13.90;99.90;;;;;;5086676;28;20774;-76
2023/08/28 02:15:51;;;;;;;4.93;2.10;;;14.00;99.90;;;;;;5078714;28;20439;-76
2023/08/28 02:18:36;;;;;;;21.33;2.07;;;13.80;99.90;;;;;;5080184;28;20429;-76
2023/08/28 02:21:22;;;;;;;2.60;1.60;;;13.70;99.90;;;;;;5082847;28;20606;-75
2023/08/28 02:24:08;;;;;;;4.30;1.50;;;13.80;99.90;;;;;;5081563;28;20432;-75
2023/08/28 02:26:54;;;;;;;2.37;1.23;;;13.90;99.90;;;;;;5080014;28;20438;-75
2023/08/28 02:29:40;;;;;;;4.63;1.37;;;14.00;99.90;;;;;;5079563;28;20416;-75
2023/08/28 02:32:28;;;;;;;9.80;1.70;;;14.10;99.90;;;;;;5084490;28;20871;-75
2023/08/28 02:35:13;;;;;;;2.23;1.33;;;14.10;99.90;;;;;;5074707;28;20433;-75
2023/08/28 02:37:59;;;;;;;3.70;1.30;;;14.00;99.90;;;;;;5076880;28;20446;-76
2023/08/28 02:40:45;;;;;;;7.57;1.50;;;14.00;99.90;;;;;;5085562;28;20466;-76
2023/08/28 02:43:31;;;;;;;2.40;1.60;;;13.90;99.90;;;;;;5082517;28;20450;-75
2023/08/28 02:46:16;;;;;;;3.77;2.27;;;14.00;99.90;;;;;;5081024;28;20443;-75
2023/08/28 02:49:03;;;;;;;5.60;3.13;;;14.00;99.90;;;;;;5085409;28;20528;-76
2023/08/28 02:51:49;;;;;;;2.40;1.60;;;14.00;99.90;;;;;;5080866;28;20466;-75
2023/08/28 02:54:35;;;;;;;4.70;1.57;;;14.10;99.90;;;;;;5078954;28;20495;-76
2023/08/28 02:57:20;;;;;;;5.60;1.23;;;14.00;99.90;;;;;;5078097;28;20477;-76
2023/08/28 03:00:08;;;;;;;3.57;1.30;;;13.90;99.90;;;;;;5079603;28;20993;-75
2023/08/28 03:02:53;;;;;;;3.30;1.60;;;13.70;99.90;;;;;;5080770;28;20558;-75
2023/08/28 03:05:47;;;;;;;2.63;1.63;;;13.60;99.90;;;;;;5079153;28;20444;-75
2023/08/28 03:08:33;;;;;;;2.60;1.37;;;13.50;99.90;;;;;;5084658;28;20783;-75
2023/08/28 03:11:18;;;;;;;4.13;1.50;;;13.50;99.90;;;;;;5079093;28;20705;-75
2023/08/28 03:14:04;;;;;;;2.13;1.70;;;13.50;99.90;;;;;;5075952;28;20413;-75
2023/08/28 03:16:50;;;;;;;3.70;1.40;;;13.50;99.90;;;;;;5080710;28;20840;-75
2023/08/28 03:19:35;;;;;;;8.73;2.20;;;13.60;99.90;;;;;;5073138;28;20442;-75
2023/08/28 03:22:22;;;;;;;2.13;1.30;;;13.80;99.90;;;;;;5079325;28;20457;-75
2023/08/28 03:25:09;;;;;;;5.57;1.47;;;13.90;99.90;;;;;;5076072;28;20500;-75
2023/08/28 03:27:54;;;;;;;2.63;1.47;;;14.00;99.90;;;;;;5085967;28;20409;-76
2023/08/28 03:30:40;;;;;;;12.23;1.87;;;14.00;99.90;;;;;;5077441;28;20465;-75
2023/08/28 03:33:26;;;;;;;3.70;1.53;;;14.10;99.90;;;;;;5074172;28;20489;-75
2023/08/28 03:36:12;;;;;;;4.50;1.43;;;14.20;99.90;;;;;;5078520;28;20474;-76
2023/08/28 03:38:59;;;;;;;3.40;1.40;;;14.30;99.90;;;;;;5079826;28;20465;-76
2023/08/28 03:41:44;;;;;;;3.23;1.33;;;14.30;99.90;;;;;;5079097;28;20432;-75
2023/08/28 03:44:30;;;;;;;3.90;1.60;;;14.20;99.90;;;;;;5085502;28;20420;-75
2023/08/28 03:47:16;;;;;;;4.93;1.60;;;14.10;99.90;;;;;;5079925;28;20446;-76
2023/08/28 03:50:02;;;;;;;3.30;1.87;;;14.00;99.90;;;;;;5081417;28;20521;-75
2023/08/28 03:52:47;;;;;;;2.60;1.80;;;14.00;99.90;;;;;;5081353;28;20558;-75
2023/08/28 03:55:34;;;;;;;3.60;1.90;;;13.80;99.90;;;;;;5078590;28;20464;-75
2023/08/28 03:58:22;;;;;;;2.33;1.73;;;13.40;99.90;;;;;;5082579;28;20605;-75
2023/08/28 04:01:07;;;;;;;5.50;1.70;;;13.40;99.90;;;;;;5076954;28;20478;-76
2023/08/28 04:03:53;;;;;;;3.37;2.00;;;13.40;99.90;;;;;;5082018;28;20479;-75
2023/08/28 04:06:39;;;;;;;4.47;1.60;;;13.40;99.90;;;;;;5077494;28;20410;-75
2023/08/28 04:09:24;;;;;;;4.10;1.93;;;13.30;99.90;;;;;;5079714;28;20765;-76
2023/08/28 04:12:11;;;;;;;3.30;1.60;;;13.30;99.90;;;;;;5081521;28;20515;-76
2023/08/28 04:14:58;;;;;;;5.27;1.77;;;13.30;99.90;;;;;;5076225;28;20503;-75
2023/08/28 04:17:43;;;;;;;7.10;1.77;;;13.30;99.90;;;;;;5084255;28;20487;-75
2023/08/28 04:20:30;;;;;;;5.10;1.67;;;13.40;99.90;;;;;;5081465;28;20469;-75
2023/08/28 04:23:16;;;;;;;2.40;1.43;;;13.30;99.90;;;;;;5077499;28;20441;-75
2023/08/28 04:26:02;;;;;;;3.10;1.33;;;13.30;99.90;;;;;;5077880;28;20424;-75
2023/08/28 04:28:49;;;;;;;4.00;1.43;;;13.40;99.90;;;;;;5081448;28;20431;-75
2023/08/28 04:31:34;;;;;;;4.77;1.70;;;13.60;99.90;;;;;;5084618;28;20827;-75
2023/08/28 04:34:20;;;;;;;2.60;1.43;;;13.60;99.90;;;;;;5081688;28;20442;-75
2023/08/28 04:37:06;;;;;;;6.80;1.30;;;13.70;99.90;;;;;;5080888;28;20440;-76
2023/08/28 04:39:52;;;;;;;3.20;1.60;;;13.80;99.90;;;;;;5078840;28;20452;-76
2023/08/28 04:42:37;;;;;;;5.13;2.07;;;13.80;99.90;;;;;;5074472;28;20550;-75
2023/08/28 04:45:25;;;;;;;4.60;1.40;;;13.90;99.90;;;;;;5081494;28;21074;-75
2023/08/28 04:48:11;;;;;;;3.50;2.13;;;14.00;99.90;;;;;;5078486;28;20424;-75
2023/08/28 04:50:56;;;;;;;5.83;1.80;;;14.20;99.90;;;;;;5079176;28;20444;-75
2023/08/28 04:53:42;;;;;;;6.37;1.87;;;14.20;99.90;;;;;;5084337;28;20527;-75
2023/08/28 04:56:28;;;;;;;5.17;1.80;;;14.10;99.90;;;;;;5080297;28;20470;-75
2023/08/28 04:59:14;;;;;;;3.47;1.90;;;13.90;99.90;;;;;;5087204;28;20438;-75
2023/08/28 05:02:00;;;;;;;8.33;2.20;;;13.90;99.90;;;;;;5082688;28;20568;-75
2023/08/28 05:04:46;;;;;;;9.23;2.00;;;13.80;99.90;;;;;;5085298;28;20535;-77
2023/08/28 05:07:31;;;;;;;2.83;1.73;;;13.80;99.90;;;;;;5089023;28;20433;-78
2023/08/28 05:10:17;;;;;;;3.53;1.33;;;13.70;99.90;;;;;;5081638;28;20493;-75
2023/08/28 05:13:03;;;;;;;4.37;1.77;;;13.70;99.90;;;;;;5087552;28;20417;-77
2023/08/28 05:15:49;;;;;;;2.90;1.47;;;13.80;99.90;;;;;;5083890;28;20472;-77
2023/08/28 05:18:36;;;;;;;2.37;1.70;;;14.00;99.90;;;;;;5083952;28;20441;-77
2023/08/28 05:21:22;;;;;;;4.00;1.80;;;14.10;99.90;;;;;;5084997;28;20537;-77
2023/08/28 05:24:08;;;;;;;2.37;1.33;;;14.20;99.90;;;;;;5088002;28;20461;-77
2023/08/28 05:26:53;;;;;;;7.77;2.03;;;14.30;99.90;;;;;;5083563;28;20944;-76
2023/08/28 05:29:39;;;;;;;3.93;2.00;;;14.40;99.90;;;;;;5083716;28;20453;-77
2023/08/28 05:32:25;;;;;;;2.30;1.70;;;14.40;99.90;;;;;;5084698;28;21101;-78
2023/08/28 05:35:12;;;;;;;3.13;1.70;;;14.50;99.90;;;;;;5088951;28;20965;-76
2023/08/28 05:37:58;;;;;;;3.60;1.70;;;14.50;99.90;;;;;;5091080;28;20464;-76
2023/08/28 05:40:43;;;;;;;2.10;1.30;;;14.40;99.90;;;;;;5083429;28;20563;-78
2023/08/28 05:43:29;;;;;;;2.27;1.43;;;14.40;99.90;;;;;;5088504;28;20955;-75
2023/08/28 05:46:15;;;;;;;10.40;3.30;;;14.40;99.90;;;;;;5082004;28;20442;-77
2023/08/28 05:49:00;;;;;;;4.10;1.57;;;14.40;99.90;;;;;;5085707;28;20413;-76
2023/08/28 05:51:47;;;;;;;2.90;1.60;;;14.40;99.90;;;;;;5083338;28;20467;-76
2023/08/28 05:54:33;;;;;;;2.10;1.23;;;14.40;99.90;;;;;;5079185;28;20561;-76
2023/08/28 05:57:19;;;;;;;3.33;1.30;;;14.50;99.90;;;;;;5085898;28;20432;-77
2023/08/28 06:00:08;;;;;;;6.17;1.97;;;14.50;99.90;;;;;;5083214;28;20489;-77
2023/08/28 06:02:53;;;;;;;2.67;1.40;;;14.60;99.90;;;;;;5085262;28;20449;-77
2023/08/28 06:05:39;;;;;;;2.80;1.93;;;14.60;99.90;;;;;;5084921;28;20423;-77
2023/08/28 06:08:26;;;;;;;4.97;1.60;;;14.70;99.90;;;;;;5077002;28;20493;-77
2023/08/28 06:11:11;;;;;;;10.40;2.40;;;14.70;99.90;;;;;;5086409;28;20912;-77
2023/08/28 06:13:59;;;;;;;2.13;1.47;;;14.80;99.90;;;;;;5080303;28;20441;-77
2023/08/28 06:16:44;;;;;;;3.53;1.53;;;14.80;99.90;;;;;;5083508;28;20489;-75
2023/08/28 06:19:30;;;;;;;5.50;1.83;;;14.90;99.90;;;;;;5079548;28;20937;-77
2023/08/28 06:22:16;;;;;;;3.60;2.00;;;14.90;99.90;;;;;;5088866;28;20832;-77
2023/08/28 06:25:03;;;;;;;3.20;1.70;;;14.90;99.90;;;;;;5084487;28;20499;-77
2023/08/28 06:27:49;;;;;;;3.73;1.80;;;14.90;99.90;;;;;;5080979;28;20976;-76
2023/08/28 06:30:34;;;;;;;6.17;2.10;;;15.00;99.90;;;;;;5084184;28;21018;-77
2023/08/28 06:33:20;;;;;;;11.37;2.17;;;15.00;99.90;;;;;;5080697;28;20487;-77
2023/08/28 06:36:06;;;;;;;5.93;1.90;;;15.00;99.90;;;;;;5080471;28;20407;-77
2023/08/28 06:38:52;;;;;;;4.50;1.70;;;15.00;99.90;;;;;;5090218;28;20459;-77
2023/08/28 06:41:39;;;;;;;7.77;2.07;;;15.00;99.90;;;;;;5079360;28;22853;-77
2023/08/28 06:44:24;;;;;;;4.23;1.70;;;15.00;99.90;;;;;;5083119;28;20445;-75
2023/08/28 06:47:10;;;;;;;6.30;1.87;;;15.00;99.90;;;;;;5078713;28;20415;-77
2023/08/28 06:49:56;;;;;;;6.17;1.80;;;15.00;99.90;;;;;;5081609;28;20450;-77
2023/08/28 06:52:42;;;;;;;3.07;2.33;;;14.90;99.90;;;;;;5085663;28;20846;-77
2023/08/28 06:55:28;;;;;;;9.17;2.00;;;14.80;99.90;;;;;;5079991;28;20444;-77
2023/08/28 06:58:15;;;;;;;4.40;1.77;;;14.80;99.90;;;;;;5083330;28;20461;-77
2023/08/28 07:01:00;;;;;;;4.07;2.30;;;14.80;99.90;;;;;;5083465;28;20518;-78
2023/08/28 07:03:46;;;;;;;4.27;2.00;;;14.80;99.90;;;;;;5085562;28;20413;-77
2023/08/28 07:06:32;;;;;;;3.03;2.00;;;14.90;99.90;;;;;;5084790;28;20441;-77
2023/08/28 07:09:17;;;;;;;3.40;2.07;;;14.90;99.90;;;;;;5083733;28;20423;-76
2023/08/28 07:12:04;;;;;;;4.33;2.07;;;15.00;99.90;;;;;;5076881;28;21011;-76
2023/08/28 07:15:23;;;;;;;8.00;2.73;;;15.00;99.90;;;;;;5074960;28;20446;-77
2023/08/28 07:18:08;;;;;;;6.43;2.13;;;15.10;99.90;;;;;;5083692;28;20460;-77
2023/08/28 07:20:54;;;;;;;5.00;2.17;;;15.20;99.90;;;;;;5075522;28;20474;-78
2023/08/28 07:23:40;;;;;;;3.50;2.40;;;15.20;99.90;;;;;;5085421;28;20462;-78
2023/08/28 07:26:25;;;;;;;7.00;2.00;;;15.10;99.90;;;;;;5080801;28;20432;-78
2023/08/28 07:29:11;;;;;;;7.57;2.00;;;15.10;99.90;;;;;;5087413;28;20416;-76
2023/08/28 07:31:58;;;;;;;3.10;2.07;;;15.10;99.90;;;;;;5077892;28;20439;-76
2023/08/28 07:34:44;;;;;;;8.90;2.20;;;15.10;99.90;;;;;;5084308;28;20450;-76
2023/08/28 07:37:29;;;;;;;5.40;2.40;;;15.20;99.90;;;;;;5087467;28;20470;-77
2023/08/28 07:40:16;;;;;;;3.50;2.03;;;15.20;99.90;;;;;;5083664;28;20404;-75
2023/08/28 07:43:02;;;;;;;5.53;2.67;;;15.30;99.90;;;;;;5074939;28;20477;-77
2023/08/28 07:45:48;;;;;;;2.73;2.23;;;15.40;99.90;;;;;;5081306;28;20458;-77
2023/08/28 07:48:35;;;;;;;3.83;2.53;;;15.40;99.90;;;;;;5080586;28;20560;-76
2023/08/28 07:51:21;;;;;;;5.33;2.20;;;15.50;99.90;;;;;;5081625;28;20462;-76
2023/08/28 07:54:06;;;;;;;3.13;1.80;;;15.60;99.90;;;;;;5081637;28;20831;-76
2023/08/28 07:56:52;;;;;;;6.73;1.97;;;15.60;99.90;;;;;;5079842;28;20418;-78
2023/08/28 07:59:37;;;;;;;6.40;2.50;;;15.60;99.90;;;;;;5079969;28;20409;-76
2023/08/28 08:02:23;;;;;;;5.57;2.10;;;15.60;99.90;;;;;;5081649;28;20481;-75
2023/08/28 08:05:11;;;;;;;3.10;2.10;;;15.70;99.90;;;;;;5082759;28;20967;-79
2023/08/28 08:07:57;;;;;;;9.37;2.10;;;15.80;99.90;;;;;;5085061;28;20428;-77
2023/08/28 08:10:42;;;;;;;7.23;2.53;;;15.80;99.90;;;;;;5079290;28;21067;-78
2023/08/28 08:13:29;;;;;;;5.00;2.20;;;15.90;99.90;;;;;;5083474;28;20400;-77
2023/08/28 08:16:14;;;;;;;7.57;2.30;;;15.90;99.90;;;;;;5084009;28;20434;-77
2023/08/28 08:19:00;;;;;;;5.47;2.33;;;15.90;99.90;;;;;;5087656;28;20819;-77
2023/08/28 08:21:47;;;;;;;7.20;3.30;;;15.90;99.90;;;;;;5080539;28;20460;-76
2023/08/28 08:24:33;;;;;;;6.70;2.03;;;15.80;99.90;;;;;;5094465;28;20929;-77
2023/08/28 08:27:19;;;;;;;10.03;2.47;;;15.90;99.90;;;;;;5085322;28;20512;-77
2023/08/28 08:30:06;;;;;;;3.70;2.17;;;15.90;99.90;;;;;;5082594;28;20419;-76
2023/08/28 08:32:52;;;;;;;14.10;2.13;;;16.00;99.90;;;;;;5077900;28;20480;-77
2023/08/28 08:35:37;;;;;;;6.17;2.67;;;16.00;99.90;;;;;;5083710;28;20534;-76
2023/08/28 08:38:24;;;;;;;4.13;2.87;;;16.20;99.90;;;;;;5090704;28;21003;-77
2023/08/28 08:41:10;;;;;;;5.13;2.50;;;16.20;99.90;;;;;;5081351;28;20481;-78
2023/08/28 08:43:56;;;;;;;4.40;2.50;;;16.30;99.90;;;;;;5087983;28;20472;-77
2023/08/28 08:46:42;;;;;;;4.20;2.33;;;16.30;99.90;;;;;;5084003;28;20940;-76
2023/08/28 08:49:32;;;;;;;4.77;2.27;;;16.30;99.90;;;;;;5082154;28;20585;-77
2023/08/28 08:52:21;;;;;;;5.63;2.20;;;16.40;99.90;;;;;;5085819;28;20460;-77
2023/08/28 08:55:17;;;;;;;7.40;2.60;;;16.40;99.90;;;;;;5084353;28;20510;-77
2023/08/28 08:58:08;;;;;;;3.23;2.13;;;16.40;99.90;;;;;;5083311;28;20448;-77
2023/08/28 09:00:55;;;;;;;3.60;2.50;;;16.40;99.90;;;;;;5085105;28;21054;-77
2023/08/28 09:03:41;;;;;;;5.27;2.90;;;16.50;99.90;;;;;;5084516;28;20539;-76
2023/08/28 09:06:30;;;;;;;4.27;2.17;;;16.50;99.90;;;;;;5086448;28;20441;-78
2023/08/28 09:09:16;;;;;;;4.50;3.17;;;16.60;99.90;;;;;;5084327;28;20408;-77
2023/08/28 09:12:02;;;;;;;4.27;3.63;;;16.60;99.90;;;;;;5085265;28;20457;-77
2023/08/28 09:14:48;;;;;;;9.47;3.30;;;16.70;99.90;;;;;;5084073;28;20401;-75
2023/08/28 09:17:40;;;;;;;8.33;3.10;;;16.70;99.90;;;;;;5091015;28;20436;-77
2023/08/28 09:20:26;;;;;;;5.10;3.70;;;16.80;99.90;;;;;;5086218;28;20421;-77
2023/08/28 09:23:12;;;;;;;4.13;3.13;;;16.80;99.90;;;;;;5088619;28;20977;-77
2023/08/28 09:25:57;;;;;;;3.97;3.23;;;16.80;99.90;;;;;;5083078;28;20418;-76
2023/08/28 09:28:58;;;;;;;4.70;3.30;;;16.80;99.90;;;;;;5082349;28;20444;-75
2023/08/28 09:31:44;;;;;;;4.50;3.10;;;16.80;99.90;;;;;;5082814;28;20486;-77
2023/08/28 09:34:39;;;;;;;4.13;2.70;;;16.70;99.90;;;;;;5085317;28;21236;-77
2023/08/28 09:37:28;;;;;;;3.60;2.90;;;16.80;99.90;;;;;;5081536;28;20420;-78
2023/08/28 09:40:16;;;;;;;5.87;2.90;;;16.80;99.90;;;;;;5085932;28;20453;-77
2023/08/28 09:43:02;;;;;;;4.70;3.07;;;16.80;99.90;;;;;;5082041;28;20930;-78
2023/08/28 09:45:49;;;;;;;5.90;3.47;;;16.90;99.90;;;;;;5087080;28;20459;-76
2023/08/28 09:48:36;;;;;;;6.23;4.03;;;16.90;99.90;;;;;;5079195;28;20513;-77
2023/08/28 09:51:21;;;;;;;8.97;3.63;;;17.00;99.90;;;;;;5089723;28;20440;-76
2023/08/28 09:54:07;;;;;;;6.00;3.23;;;17.00;99.90;;;;;;5088369;28;20864;-77
2023/08/28 09:56:53;;;;;;;4.60;3.50;;;17.00;99.90;;;;;;5078644;28;20490;-77
2023/08/28 09:59:39;;;;;;;5.23;3.53;;;17.10;99.90;;;;;;5081242;28;20462;-77
2023/08/28 10:02:27;;;;;;;6.17;3.73;;;17.20;99.90;;;;;;5079947;28;20503;-77
2023/08/28 10:05:15;;;;;;;5.03;3.47;;;17.20;99.90;;;;;;5086431;28;20411;-77
2023/08/28 10:08:04;;;;;;;7.70;3.70;;;17.30;99.90;;;;;;5089473;28;20550;-77
2023/08/28 10:10:51;;;;;;;6.73;3.90;;;17.40;99.90;;;;;;5086609;28;20560;-77
2023/08/28 10:13:37;;;;;;;9.23;3.93;;;17.50;99.90;;;;;;5085285;28;20420;-77
2023/08/28 10:16:27;;;;;;;5.60;3.63;;;17.50;99.90;;;;;;5085821;28;20801;-78
2023/08/28 10:19:20;;;;;;;7.87;4.20;;;17.50;99.90;;;;;;5087321;28;20520;-77
2023/08/28 10:22:08;;;;;;;6.60;3.60;;;17.60;99.90;;;;;;5081459;28;20437;-77
2023/08/28 10:24:56;;;;;;;4.70;3.00;;;17.60;99.90;;;;;;5081285;28;20434;-78
2023/08/28 10:27:41;;;;;;;4.57;2.83;;;17.70;99.90;;;;;;5081842;28;20510;-78
2023/08/28 10:30:28;;;;;;;5.77;3.63;;;17.80;99.90;;;;;;5085093;28;20439;-75
2023/08/28 10:33:15;;;;;;;5.27;3.07;;;17.90;99.90;;;;;;5082456;28;20552;-77
2023/08/28 10:36:03;;;;;;;6.40;2.90;;;18.00;99.90;;;;;;5086636;28;20460;-77
2023/08/28 10:38:50;;;;;;;3.60;2.43;;;18.00;99.90;;;;;;5089861;28;20453;-77
2023/08/28 10:41:38;;;;;;;3.20;2.53;;;18.00;99.90;;;;;;5086456;28;20481;-76
2023/08/28 10:44:24;;;;;;;4.40;2.13;;;18.00;99.90;;;;;;5077365;28;20443;-77
2023/08/28 10:47:14;;;;;;;3.97;1.73;;;18.00;99.90;;;;;;5085570;28;21139;-77
2023/08/28 10:50:00;;;;;;;3.90;1.93;;;18.00;99.90;;;;;;5081044;28;22411;-78
2023/08/28 10:52:47;;;;;;;2.93;1.50;;;18.10;99.90;;;;;;5084457;28;20456;-77
2023/08/28 10:55:34;;;;;;;2.90;1.90;;;18.10;99.90;;;;;;5076507;28;20446;-77
2023/08/28 10:58:20;;;;;;;4.53;1.97;;;18.20;99.90;;;;;;5085507;28;20576;-76
2023/08/28 11:01:15;;;;;;;3.33;1.87;;;18.10;99.90;;;;;;5081047;28;20454;-77
2023/08/28 11:04:01;;;;;;;2.80;1.90;;;18.10;99.90;;;;;;5085796;28;20579;-78
2023/08/28 11:06:47;;;;;;;3.43;1.83;;;18.20;99.90;;;;;;5087154;28;20439;-75
2023/08/28 11:09:35;;;;;;;2.67;1.87;;;18.10;99.90;;;;;;5080200;28;20453;-76
2023/08/28 11:12:28;;;;;;;3.87;1.60;;;18.20;99.90;;;;;;5080103;28;21085;-75
2023/08/28 11:15:26;;;;;;;7.23;1.90;;;18.30;99.90;;;;;;5086382;28;20415;-75
2023/08/28 11:18:28;;;;;;;3.27;2.20;;;18.20;99.90;;;;;;5085754;28;20475;-76
2023/08/28 11:21:16;;;;;;;3.80;1.80;;;18.20;99.90;;;;;;5082026;28;20442;-75
2023/08/28 11:24:02;;;;;;;2.30;1.50;;;18.30;99.90;;;;;;5079516;28;20797;-76
2023/08/28 11:26:49;;;;;;;3.20;2.10;;;18.30;99.90;;;;;;5075857;28;20418;-76
2023/08/28 11:29:36;;;;;;;3.60;2.37;;;18.40;99.90;;;;;;5081920;28;20777;-76
2023/08/28 11:32:23;;;;;;;2.93;1.80;;;18.40;99.90;;;;;;5083863;28;20516;-76
2023/08/28 11:35:12;;;;;;;2.67;1.40;;;18.50;99.90;;;;;;5081080;28;21354;-75
2023/08/28 11:37:58;;;;;;;2.53;1.73;;;18.70;99.90;;;;;;5085199;28;20468;-76
2023/08/28 11:40:44;;;;;;;2.70;1.70;;;18.90;99.90;;;;;;5078778;28;20461;-75
2023/08/28 11:43:34;;;;;;;7.07;1.70;;;19.10;99.90;;;;;;5084562;28;20810;-75
2023/08/28 11:46:25;;;;;;;2.30;1.47;;;19.20;99.90;;;;;;5082848;28;20445;-76
2023/08/28 11:49:13;;;;;;;4.10;1.90;;;19.30;99.90;;;;;;5080765;28;20575;-76
2023/08/28 11:52:00;;;;;;;1.80;1.20;;;19.30;96.30;;;;;;5083896;28;20980;-76
2023/08/28 11:54:45;;;;;;;3.63;1.50;;;19.30;95.20;;;;;;5081768;28;20448;-75
2023/08/28 11:57:32;;;;;;;3.57;2.00;;;19.30;95.50;;;;;;5084487;28;20417;-76
2023/08/28 12:00:20;;;;;;;3.73;1.40;;;19.30;99.80;;;;;;5077807;28;20935;-76
2023/08/28 12:03:06;;;;;;;2.20;1.40;;;19.40;99.00;;;;;;5079400;28;20445;-75
2023/08/28 12:06:00;;;;;;;3.73;2.03;;;19.50;94.10;;;;;;5075253;28;20919;-75
2023/08/28 12:08:47;;;;;;;2.77;1.37;;;19.60;92.90;;;;;;5081652;28;20441;-76
2023/08/28 12:11:33;;;;;;;3.10;1.50;;;19.50;90.60;;;;;;5078165;28;20585;-76
2023/08/28 12:14:20;;;;;;;6.43;2.10;;;19.50;91.50;;;;;;5076073;28;20670;-75
2023/08/28 12:17:07;;;;;;;5.43;1.40;;;19.50;91.10;;;;;;5077574;28;20456;-76
2023/08/28 12:19:53;;;;;;;5.23;1.37;;;19.50;93.20;;;;;;5083174;28;20476;-76
2023/08/28 12:22:43;;;;;;;3.83;1.50;;;19.50;95.10;;;;;;5074169;28;20546;-75
2023/08/28 12:25:34;;;;;;;3.03;1.60;;;19.60;90.60;;;;;;5073014;28;20963;-76
2023/08/28 12:28:19;;;;;;;2.30;1.50;;;19.50;89.80;;;;;;5077350;28;20979;-76
2023/08/28 12:31:05;;;;;;;3.70;1.50;;;19.50;91.50;;;;;;5080035;28;20475;-76
2023/08/28 12:33:52;;;;;;;3.70;1.70;;;19.50;93.30;;;;;;5076412;28;20903;-75
2023/08/28 12:36:39;;;;;;;2.70;1.30;;;19.50;94.60;;;;;;5082111;28;20905;-76
2023/08/28 12:39:27;;;;;;;2.47;1.60;;;19.50;94.20;;;;;;5078238;28;20472;-75
2023/08/28 12:42:13;;;;;;;3.37;1.83;;;19.50;91.50;;;;;;5075053;28;20442;-76
2023/08/28 12:44:59;;;;;;;3.17;1.67;;;19.60;92.30;;;;;;5072822;28;20447;-76
2023/08/28 12:47:45;;;;;;;6.80;1.20;;;19.60;91.40;;;;;;5080012;28;20443;-76
2023/08/28 12:50:32;;;;;;;4.17;2.07;;;19.70;90.10;;;;;;5080376;28;21459;-76
2023/08/28 12:53:18;;;;;;;2.90;1.20;;;19.60;82.20;;;;;;5075716;28;20432;-76
2023/08/28 12:56:04;;;;;;;3.33;1.40;;;19.60;90.20;;;;;;5076395;28;20967;-76
2023/08/28 12:58:50;;;;;;;2.10;1.27;;;19.60;84.50;;;;;;5077502;28;20480;-76
2023/08/28 13:01:35;;;;;;;2.93;1.60;;;19.60;84.40;;;;;;5073113;28;20446;-75
2023/08/28 13:04:21;;;;;;;2.73;1.20;;;19.50;83.50;;;;;;5076512;28;21001;-75
2023/08/28 13:07:07;;;;;;;4.37;1.40;;;19.50;76.10;;;;;;5079097;28;20446;-75
2023/08/28 13:09:53;;;;;;;2.93;1.40;;;19.40;78.80;;;;;;5074446;28;20430;-76
2023/08/28 13:12:38;;;;;;;2.50;1.60;;;19.40;74.60;;;;;;5078077;28;20788;-76
2023/08/28 13:15:24;;;;;;;2.40;1.10;;;19.40;76.20;;;;;;5073503;28;20447;-76
2023/08/28 13:18:10;;;;;;;2.30;1.30;;;19.30;77.90;;;;;;5077376;28;20439;-76
2023/08/28 13:20:55;;;;;;;2.40;1.20;;;19.30;76.90;;;;;;5075301;28;20464;-76
2023/08/28 13:23:42;;;;;;;2.00;1.20;;;19.20;83.20;;;;;;5089917;28;20525;-76
2023/08/28 13:26:28;;;;;;;2.53;1.00;;;19.20;81.80;;;;;;5085428;28;20420;-77
2023/08/28 13:29:13;;;;;;;2.93;1.10;;;19.20;83.20;;;;;;5080914;28;20459;-76
2023/08/28 13:31:59;;;;;;;4.10;1.50;;;19.30;75.70;;;;;;5080626;28;20468;-76
2023/08/28 13:34:45;;;;;;;2.67;1.13;;;19.30;76.00;;;;;;5085698;28;20447;-76
2023/08/28 13:37:30;;;;;;;2.33;1.17;;;19.30;74.60;;;;;;5086634;28;20417;-76
2023/08/28 13:40:17;;;;;;;10.50;1.70;;;19.40;73.20;;;;;;5074096;28;20927;-75
2023/08/28 13:43:03;;;;;;;5.47;1.50;;;19.40;72.80;;;;;;5073646;28;20457;-76
2023/08/28 13:45:51;;;;;;;4.27;1.70;;;19.40;73.50;;;;;;5077925;28;20483;-76
2023/08/28 13:48:36;;;;;;;2.50;1.30;;;19.30;73.20;;;;;;5081509;28;20798;-76
2023/08/28 13:51:22;;;;;;;2.27;1.20;;;19.40;77.90;;;;;;5084191;28;20629;-76
2023/08/28 13:54:08;;;;;;;2.83;1.53;;;19.40;77.70;;;;;;5077682;28;20560;-76
2023/08/28 13:56:54;;;;;;;4.67;1.80;;;19.40;78.60;;;;;;5084393;28;20448;-76
2023/08/28 13:59:40;;;;;;;4.00;1.60;;;19.30;75.20;;;;;;5080208;28;20445;-76
2023/08/28 14:02:26;;;;;;;2.50;1.10;;;19.30;78.70;;;;;;5076861;28;20501;-76
2023/08/28 14:05:13;;;;;;;2.40;1.40;;;19.30;78.40;;;;;;5076932;28;20418;-76
2023/08/28 14:07:59;;;;;;;4.10;1.30;;;19.20;79.50;;;;;;5077788;28;20419;-76
2023/08/28 14:10:44;;;;;;;3.07;1.67;;;19.20;85.10;;;;;;5076995;28;20438;-76
2023/08/28 14:13:31;;;;;;;4.10;1.50;;;19.30;88.20;;;;;;5079612;28;20411;-76
2023/08/28 14:16:17;;;;;;;7.20;1.37;;;19.30;89.80;;;;;;5077772;28;20458;-76
2023/08/28 14:19:03;;;;;;;4.27;1.60;;;19.50;88.40;;;;;;5078056;28;20612;-76
2023/08/28 14:21:48;;;;;;;2.90;1.47;;;19.50;89.20;;;;;;5076297;28;20485;-76
2023/08/28 14:24:34;;;;;;;1.73;1.00;;;19.50;89.00;;;;;;5078998;28;20443;-76
2023/08/28 14:27:20;;;;;;;3.50;1.33;;;19.60;90.00;;;;;;5081219;28;20449;-76